Time;durP1;ratioP1;P1;durP2;ratioP2;P2;SDS_P1;SDS_P2;PMS_P1;PMS_P2;Temp;Humidity;BMP_temperature;BMP_pressure;BME280_temperature;BME280_humidity;BME280_pressure;Samples;Min_cycle;Max_cycle;Signal;HPM_P1;HPM_P2
2023/01/21 00:02:23;;;;;;;6.68;4.60;;;;;;;5.16;100.00;101384.63;5041150;28;20028;-80
2023/01/21 00:04:49;;;;;;;13.52;4.97;;;;;;;5.16;100.00;101381.16;5057467;28;20068;-80
2023/01/21 00:07:15;;;;;;;6.82;4.20;;;;;;;5.17;100.00;101388.94;5045684;28;20036;-80
2023/01/21 00:09:41;;;;;;;12.13;5.85;;;;;;;5.16;100.00;101392.47;5036324;28;20458;-80
2023/01/21 00:12:07;;;;;;;10.57;4.78;;;;;;;5.17;100.00;101394.19;5030186;28;20124;-80
2023/01/21 00:14:33;;;;;;;11.18;5.20;;;;;;;5.18;100.00;101381.91;5043771;28;20107;-80
2023/01/21 00:16:59;;;;;;;12.30;4.70;;;;;;;5.19;100.00;101386.25;5039862;28;20390;-79
2023/01/21 00:19:25;;;;;;;10.55;4.97;;;;;;;5.18;100.00;101387.16;5064845;28;20464;-80
2023/01/21 00:21:51;;;;;;;11.02;5.75;;;;;;;5.18;100.00;101392.41;5054324;28;20055;-81
2023/01/21 00:24:17;;;;;;;15.30;6.13;;;;;;;5.22;100.00;101396.56;5031670;28;20035;-80
2023/01/21 00:26:43;;;;;;;11.88;5.07;;;;;;;5.23;100.00;101406.09;5081254;28;20029;-80
2023/01/21 00:29:12;;;;;;;9.27;5.53;;;;;;;5.26;100.00;101405.94;5062842;28;20029;-79
2023/01/21 00:31:37;;;;;;;12.90;5.65;;;;;;;5.24;100.00;101409.56;5044443;28;20040;-80
2023/01/21 00:34:03;;;;;;;8.48;4.88;;;;;;;5.25;100.00;101411.25;5041294;28;20038;-80
2023/01/21 00:36:29;;;;;;;10.98;5.03;;;;;;;5.25;100.00;101406.88;4976254;28;20825;-80
2023/01/21 00:38:55;;;;;;;8.65;5.55;;;;;;;5.28;100.00;101411.09;5037649;28;20028;-80
2023/01/21 00:41:23;;;;;;;9.57;5.38;;;;;;;5.30;100.00;101404.00;5072878;28;20508;-80
2023/01/21 00:43:49;;;;;;;11.88;5.60;;;;;;;5.30;100.00;101409.22;5067704;28;20094;-80
2023/01/21 00:46:15;;;;;;;12.43;5.15;;;;;;;5.30;100.00;101406.59;5034751;28;20025;-80
2023/01/21 00:48:41;;;;;;;6.40;4.90;;;;;;;5.32;100.00;101408.19;5034638;28;20032;-80
2023/01/21 00:51:08;;;;;;;8.82;4.85;;;;;;;5.32;100.00;101407.34;5043881;28;20040;-80
2023/01/21 00:53:36;;;;;;;12.80;5.15;;;;;;;5.32;100.00;101404.72;5053855;28;20079;-79
2023/01/21 00:56:05;;;;;;;5.50;4.40;;;;;;;5.36;100.00;101408.03;5004219;28;20029;-80
2023/01/21 00:58:32;;;;;;;13.52;4.88;;;;;;;5.34;100.00;101419.47;5033716;28;20028;-80
2023/01/21 01:01:11;;;;;;;12.45;4.97;;;;;;;5.38;100.00;101412.28;5034795;28;20036;-80
2023/01/21 01:03:38;;;;;;;9.05;4.20;;;;;;;5.37;100.00;101414.97;5057080;28;20028;-80
2023/01/21 01:06:11;;;;;;;7.97;4.45;;;;;;;5.41;100.00;101424.34;5039493;28;20037;-80
2023/01/21 01:08:37;;;;;;;11.77;5.30;;;;;;;5.37;100.00;101423.69;5056658;28;20028;-80
2023/01/21 01:11:03;;;;;;;9.73;4.88;;;;;;;5.39;100.00;101426.22;5048228;28;20516;-80
2023/01/21 01:13:29;;;;;;;10.00;5.80;;;;;;;5.37;100.00;101417.59;5060876;28;20033;-80
2023/01/21 01:15:57;;;;;;;14.20;5.60;;;;;;;5.39;100.00;101416.56;5051802;28;20036;-78
2023/01/21 01:18:24;;;;;;;10.52;6.90;;;;;;;5.41;100.00;101422.59;5064015;28;20025;-78
2023/01/21 01:20:51;;;;;;;13.02;7.30;;;;;;;5.40;100.00;101420.88;5052168;28;20036;-80
2023/01/21 01:23:17;;;;;;;12.50;7.38;;;;;;;5.39;100.00;101420.97;5023722;28;20107;-80
2023/01/21 01:25:43;;;;;;;11.75;8.05;;;;;;;5.40;100.00;101418.25;5012309;28;20411;-78
2023/01/21 01:28:09;;;;;;;13.48;8.57;;;;;;;5.40;100.00;101420.88;5046107;28;20030;-78
2023/01/21 01:30:35;;;;;;;16.73;9.82;;;;;;;5.44;100.00;101422.41;5019765;28;20033;-80
2023/01/21 01:33:01;;;;;;;14.15;10.15;;;;;;;5.45;100.00;101418.84;5045741;28;20075;-80
2023/01/21 01:35:27;;;;;;;17.00;10.05;;;;;;;5.43;100.00;101410.22;5029803;28;20635;-80
2023/01/21 01:37:53;;;;;;;17.65;10.48;;;;;;;5.45;100.00;101415.38;5025241;28;20029;-80
2023/01/21 01:40:19;;;;;;;18.42;11.02;;;;;;;5.44;100.00;101418.94;5021212;28;20033;-80
2023/01/21 01:42:45;;;;;;;19.13;11.30;;;;;;;5.42;100.00;101423.41;5040352;28;20021;-81
2023/01/21 01:45:20;;;;;;;19.60;11.07;;;;;;;5.47;100.00;101424.00;5013413;28;20033;-81
2023/01/21 01:47:57;;;;;;;14.73;10.73;;;;;;;5.48;100.00;101430.09;5029289;28;20040;-81
2023/01/21 01:50:28;;;;;;;14.25;10.20;;;;;;;5.51;100.00;101435.19;5039827;28;20964;-81
2023/01/21 01:52:55;;;;;;;18.55;9.85;;;;;;;5.48;100.00;101430.94;5038787;28;20167;-81
2023/01/21 01:55:22;;;;;;;15.40;10.55;;;;;;;5.51;100.00;101435.19;5046284;28;20079;-80
2023/01/21 01:57:51;;;;;;;17.35;9.73;;;;;;;5.52;100.00;101440.34;5027777;28;20087;-81
2023/01/21 02:00:18;;;;;;;25.15;10.70;;;;;;;5.52;100.00;101439.47;5043115;28;20048;-81
2023/01/21 02:03:43;;;;;;;11.50;8.85;;;;;;;5.52;100.00;101440.34;5039781;28;20033;-81
2023/01/21 02:05:31;;;;;;;;;;;;;;;5.51;100.00;101440.44;5027557;28;20134;-81
2023/01/21 02:07:56;;;;;;;;;;;;;;;5.48;100.00;101449.28;5028000;28;19928;-81
2023/01/21 02:10:22;;;;;;;15.00;6.57;;;;;;;5.51;100.00;101456.16;5040376;28;19940;-81
2023/01/21 02:12:48;;;;;;;19.52;7.57;;;;;;;5.53;100.00;101460.38;5057774;28;20476;-81
2023/01/21 02:15:13;;;;;;;17.02;6.75;;;;;;;5.55;100.00;101466.38;5014799;28;20105;-81
2023/01/21 02:18:04;;;;;;;17.60;8.18;;;;;;;5.59;100.00;101464.41;5015760;28;20037;-81
2023/01/21 02:20:55;;;;;;;16.42;6.22;;;;;;;5.60;100.00;101463.50;5023849;28;20036;-81
2023/01/21 02:23:39;;;;;;;14.93;6.55;;;;;;;5.63;100.00;101468.56;5032511;28;20065;-81
2023/01/21 02:26:17;;;;;;;16.98;6.75;;;;;;;5.64;100.00;101467.63;5044915;28;20036;-81
2023/01/21 02:28:51;;;;;;;17.40;7.53;;;;;;;5.64;100.00;101477.31;5055877;28;20036;-81
2023/01/21 02:31:53;;;;;;;10.00;6.40;;;;;;;5.64;100.00;101480.75;4999686;28;20037;-81
2023/01/21 02:34:32;;;;;;;16.90;6.35;;;;;;;5.63;100.00;101492.19;5043649;28;20109;-81
2023/01/21 02:37:32;;;;;;;12.57;6.15;;;;;;;5.66;100.00;101494.63;5020326;28;20127;-81
2023/01/21 02:39:57;;;;;;;10.63;5.90;;;;;;;5.62;100.00;101495.75;5029904;28;20065;-81
2023/01/21 02:42:47;;;;;;;12.82;6.63;;;;;;;5.65;100.00;101503.44;4999206;28;20136;-81
2023/01/21 02:45:41;;;;;;;14.68;6.60;;;;;;;5.68;100.00;101512.91;5010557;28;20101;-81
2023/01/21 02:48:18;;;;;;;13.88;6.70;;;;;;;5.67;100.00;101514.69;5027707;28;20029;-81
2023/01/21 02:50:48;;;;;;;19.60;6.63;;;;;;;5.68;100.00;101518.16;5031633;28;20126;-81
2023/01/21 02:53:26;;;;;;;10.13;6.85;;;;;;;5.70;100.00;101519.75;5014560;28;20076;-81
2023/01/21 02:55:52;;;;;;;14.00;5.82;;;;;;;5.67;100.00;101525.16;5045062;28;20034;-81
2023/01/21 02:58:23;;;;;;;11.85;5.75;;;;;;;5.70;100.00;101522.38;5054302;28;20120;-81
2023/01/21 03:01:08;;;;;;;16.75;5.75;;;;;;;5.73;100.00;101517.91;5052699;28;20438;-81
2023/01/21 03:03:49;;;;;;;12.70;5.05;;;;;;;5.73;100.00;101512.66;5011146;28;20029;-81
2023/01/21 03:06:34;;;;;;;15.40;5.63;;;;;;;5.76;100.00;101509.84;5032889;28;20040;-81
2023/01/21 03:09:26;;;;;;;10.50;5.72;;;;;;;5.75;100.00;101518.66;5028008;28;20127;-81
2023/01/21 03:12:04;;;;;;;11.27;5.15;;;;;;;5.72;100.00;101509.16;5050774;28;20038;-81
2023/01/21 03:17:40;;;;;;;17.77;6.38;;;;;;;5.73;100.00;101518.75;5031478;28;20033;-80
2023/01/21 03:20:14;;;;;;;17.00;5.53;;;;;;;5.73;100.00;101513.50;5041855;28;20649;-81
2023/01/21 03:22:42;;;;;;;19.67;6.20;;;;;;;5.74;100.00;101519.56;5039353;28;20128;-81
2023/01/21 03:25:10;;;;;;;11.80;5.35;;;;;;;5.73;100.00;101515.28;5050219;28;20375;-81
2023/01/21 03:27:40;;;;;;;8.68;5.22;;;;;;;5.75;100.00;101516.88;5044288;28;20037;-81
2023/01/21 03:30:13;;;;;;;16.27;5.22;;;;;;;5.75;100.00;101511.63;5059001;28;20032;-81
2023/01/21 03:32:42;;;;;;;13.30;4.50;;;;;;;5.78;100.00;101516.69;5016934;28;20029;-81
2023/01/21 03:35:11;;;;;;;9.50;5.05;;;;;;;5.76;100.00;101517.72;5044906;28;20032;-79
2023/01/21 03:37:45;;;;;;;15.80;4.93;;;;;;;5.78;100.00;101514.06;5013177;28;20036;-79
2023/01/21 03:40:20;;;;;;;17.13;4.45;;;;;;;5.79;100.00;101514.94;5053207;28;20443;-80
2023/01/21 03:42:49;;;;;;;12.40;4.15;;;;;;;5.76;100.00;101512.47;5023817;28;20136;-78
2023/01/21 03:45:21;;;;;;;11.88;4.20;;;;;;;5.76;100.00;101512.47;5045545;28;20068;-79
2023/01/21 03:47:53;;;;;;;11.75;3.95;;;;;;;5.79;100.00;101509.69;5028537;28;20035;-79
2023/01/21 03:50:24;;;;;;;11.98;4.28;;;;;;;5.82;100.00;101514.75;5043384;28;20037;-81
2023/01/21 03:52:50;;;;;;;13.13;4.18;;;;;;;5.79;100.00;101510.53;5035304;28;20036;-80
2023/01/21 03:55:16;;;;;;;16.45;4.35;;;;;;;5.78;100.00;101511.44;5048251;28;20136;-80
2023/01/21 03:57:42;;;;;;;14.57;4.05;;;;;;;5.78;100.00;101508.81;5042819;28;20144;-81
2023/01/21 04:00:09;;;;;;;12.48;4.22;;;;;;;5.79;100.00;101509.69;5054172;28;20025;-81
2023/01/21 04:02:35;;;;;;;12.45;4.40;;;;;;;5.78;100.00;101515.88;5036692;28;20032;-81
2023/01/21 04:05:01;;;;;;;17.52;4.25;;;;;;;5.77;100.00;101514.16;5048018;28;20083;-81
2023/01/21 04:07:27;;;;;;;19.30;4.90;;;;;;;5.80;100.00;101509.59;5038773;28;20041;-81
2023/01/21 04:09:53;;;;;;;13.98;4.18;;;;;;;5.79;100.00;101497.41;5030735;28;20030;-79
2023/01/21 04:12:18;;;;;;;13.95;4.60;;;;;;;5.77;100.00;101501.91;5045377;28;20036;-79
2023/01/21 04:14:44;;;;;;;14.25;4.22;;;;;;;5.76;100.00;101507.22;5028255;28;20025;-80
2023/01/21 04:17:10;;;;;;;12.60;4.13;;;;;;;5.74;100.00;101504.69;5013194;28;20037;-80
2023/01/21 04:19:36;;;;;;;29.02;4.75;;;;;;;5.73;100.00;101500.38;5040251;28;20040;-81
2023/01/21 04:22:01;;;;;;;10.38;4.15;;;;;;;5.75;100.00;101501.13;5050571;28;20045;-80
2023/01/21 04:24:27;;;;;;;20.00;4.80;;;;;;;5.73;100.00;101482.03;5020803;28;20041;-80
2023/01/21 04:26:53;;;;;;;14.93;4.68;;;;;;;5.71;100.00;101497.84;5013067;28;20025;-79
2023/01/21 04:29:19;;;;;;;11.75;4.45;;;;;;;5.70;100.00;101504.00;5040900;28;20037;-79
2023/01/21 04:31:46;;;;;;;18.52;3.63;;;;;;;5.69;100.00;101491.84;5037985;28;20029;-79
2023/01/21 04:34:12;;;;;;;23.90;4.28;;;;;;;5.68;100.00;101495.41;5018393;28;20037;-79
2023/01/21 04:36:38;;;;;;;12.07;4.13;;;;;;;5.70;100.00;101498.75;5042268;28;20036;-81
2023/01/21 04:39:03;;;;;;;18.05;4.72;;;;;;;5.70;100.00;101490.06;5032226;28;20048;-81
2023/01/21 04:41:29;;;;;;;19.52;4.15;;;;;;;5.70;100.00;101501.38;5053852;28;20025;-81
2023/01/21 04:43:55;;;;;;;11.52;3.70;;;;;;;5.71;100.00;101504.88;5022274;28;20040;-81
2023/01/21 04:46:21;;;;;;;20.65;4.75;;;;;;;5.71;100.00;101507.50;5004218;28;20040;-81
2023/01/21 04:48:47;;;;;;;17.70;4.10;;;;;;;5.71;100.00;101505.72;5049259;28;20041;-81
2023/01/21 04:51:12;;;;;;;20.83;4.28;;;;;;;5.73;100.00;101508.25;5010417;28;20402;-79
2023/01/21 04:53:38;;;;;;;15.38;4.55;;;;;;;5.72;100.00;101509.16;5054866;28;20508;-79
2023/01/21 04:56:04;;;;;;;20.95;4.47;;;;;;;5.71;100.00;101515.38;5035966;28;20043;-81
2023/01/21 04:58:30;;;;;;;18.08;3.92;;;;;;;5.71;100.00;101512.75;4995581;28;20127;-81
2023/01/21 05:00:56;;;;;;;15.88;4.38;;;;;;;5.72;100.00;101514.41;5030571;28;20533;-81
2023/01/21 05:03:22;;;;;;;15.40;4.15;;;;;;;5.72;100.00;101517.03;5031220;28;20136;-81
2023/01/21 05:05:47;;;;;;;18.40;4.43;;;;;;;5.74;100.00;101514.34;5038167;28;20037;-80
2023/01/21 05:08:13;;;;;;;15.82;3.88;;;;;;;5.71;100.00;101512.75;5034493;28;20044;-81
2023/01/21 05:10:39;;;;;;;14.05;3.83;;;;;;;5.75;100.00;101518.66;5044822;28;20447;-80
2023/01/21 05:13:05;;;;;;;12.32;3.47;;;;;;;5.75;100.00;101519.50;5031878;28;20095;-79
2023/01/21 05:15:31;;;;;;;12.32;3.70;;;;;;;5.75;100.00;101518.66;5050144;28;20072;-79
2023/01/21 05:17:57;;;;;;;21.88;3.58;;;;;;;5.75;100.00;101523.91;5041027;28;20029;-79
2023/01/21 05:20:22;;;;;;;12.10;3.22;;;;;;;5.75;100.00;101524.75;5047793;28;20129;-79
2023/01/21 05:22:48;;;;;;;12.02;3.28;;;;;;;5.76;100.00;101520.34;5055667;28;20186;-79
2023/01/21 05:25:15;;;;;;;10.85;2.78;;;;;;;5.75;100.00;101518.66;5077588;28;20032;-81
2023/01/21 05:27:40;;;;;;;14.27;3.35;;;;;;;5.74;100.00;101516.94;5073972;28;20113;-81
2023/01/21 05:30:08;;;;;;;16.52;3.10;;;;;;;5.76;100.00;101512.47;5067687;28;20091;-81
2023/01/21 05:32:35;;;;;;;13.40;3.40;;;;;;;5.75;100.00;101513.41;5059579;28;20605;-81
2023/01/21 05:35:04;;;;;;;12.77;2.95;;;;;;;5.76;100.00;101520.34;5040566;28;20071;-79
2023/01/21 05:37:30;;;;;;;12.00;2.85;;;;;;;5.74;100.00;101517.81;5051614;28;20400;-79
2023/01/21 05:39:56;;;;;;;9.02;2.28;;;;;;;5.75;100.00;101516.03;5065101;28;20068;-81
2023/01/21 05:42:21;;;;;;;16.50;2.33;;;;;;;5.74;100.00;101517.81;5050785;28;20389;-81
2023/01/21 05:44:47;;;;;;;12.05;2.30;;;;;;;5.74;100.00;101517.81;5066715;28;20113;-81
2023/01/21 05:47:13;;;;;;;15.50;2.78;;;;;;;5.76;100.00;101520.34;5053519;28;20060;-81
2023/01/21 05:49:39;;;;;;;12.88;2.40;;;;;;;5.77;100.00;101520.25;5073971;28;20082;-81
2023/01/21 05:52:04;;;;;;;10.55;2.33;;;;;;;5.77;100.00;101527.28;5042305;28;20766;-81
2023/01/21 05:54:30;;;;;;;17.23;2.53;;;;;;;5.79;100.00;101525.41;5068710;28;20027;-81
2023/01/21 05:56:56;;;;;;;16.88;2.35;;;;;;;5.79;100.00;101525.41;5034704;28;20408;-81
2023/01/21 05:59:21;;;;;;;16.60;2.35;;;;;;;5.76;100.00;101528.22;5062630;28;20123;-80
2023/01/21 06:01:47;;;;;;;7.20;1.65;;;;;;;5.78;100.00;101514.06;5068743;28;20492;-81
2023/01/21 06:04:13;;;;;;;12.75;1.98;;;;;;;5.77;100.00;101522.03;5072035;28;20028;-81
2023/01/21 06:06:39;;;;;;;11.85;2.00;;;;;;;5.78;100.00;101527.19;5061212;28;20028;-81
2023/01/21 06:09:05;;;;;;;13.20;2.35;;;;;;;5.79;100.00;101523.66;5063693;28;20037;-81
2023/01/21 06:11:31;;;;;;;8.80;1.50;;;;;;;5.80;100.00;101527.09;5052516;28;20554;-81
2023/01/21 06:13:57;;;;;;;19.33;2.70;;;;;;;5.79;100.00;101523.66;5050051;28;20029;-81
2023/01/21 06:16:22;;;;;;;9.32;2.10;;;;;;;5.80;100.00;101534.97;5070807;28;20032;-79
2023/01/21 06:18:48;;;;;;;10.68;2.13;;;;;;;5.81;100.00;101527.00;5019775;28;20024;-80
2023/01/21 06:21:14;;;;;;;11.95;1.80;;;;;;;5.82;100.00;101533.13;5063178;28;20041;-81
2023/01/21 06:23:40;;;;;;;16.10;2.10;;;;;;;5.82;100.00;101535.75;5031042;28;20029;-81
2023/01/21 06:26:05;;;;;;;15.80;2.05;;;;;;;5.83;100.00;101537.44;5055270;28;20026;-81
2023/01/21 06:28:31;;;;;;;21.05;2.47;;;;;;;5.85;100.00;101540.81;5045374;28;20061;-81
2023/01/21 06:30:57;;;;;;;15.18;2.50;;;;;;;5.83;100.00;101545.28;5032713;28;20025;-81
2023/01/21 06:33:23;;;;;;;7.18;2.15;;;;;;;5.84;100.00;101545.22;5056961;28;20033;-81
2023/01/21 06:35:49;;;;;;;9.05;2.00;;;;;;;5.85;100.00;101540.81;5054524;28;20489;-81
2023/01/21 06:38:14;;;;;;;15.05;2.60;;;;;;;5.84;100.00;101547.84;5005868;28;20052;-81
2023/01/21 06:40:40;;;;;;;14.50;2.40;;;;;;;5.87;100.00;101533.72;5030210;28;20481;-81
2023/01/21 06:43:06;;;;;;;11.88;2.70;;;;;;;5.86;100.00;101541.69;5037736;28;20485;-80
2023/01/21 06:45:31;;;;;;;14.25;2.38;;;;;;;5.87;100.00;101551.22;5034268;28;20033;-81
2023/01/21 06:47:57;;;;;;;13.73;2.53;;;;;;;5.86;100.00;101546.91;5050383;28;20029;-81
2023/01/21 06:50:23;;;;;;;13.00;2.33;;;;;;;5.87;100.00;101538.97;5023190;28;20436;-81
2023/01/21 06:52:49;;;;;;;13.93;2.92;;;;;;;5.88;100.00;101539.78;5042401;28;20043;-80
2023/01/21 06:55:15;;;;;;;12.73;2.42;;;;;;;5.88;100.00;101535.41;5037233;28;20032;-81
2023/01/21 06:57:42;;;;;;;10.45;2.38;;;;;;;5.89;100.00;101544.13;5045090;28;20033;-81
2023/01/21 07:00:13;;;;;;;14.02;2.88;;;;;;;5.92;100.00;101538.69;5036663;28;20090;-81
2023/01/21 07:02:39;;;;;;;19.10;2.92;;;;;;;5.90;100.00;101551.06;5060588;28;20033;-81
2023/01/21 07:05:05;;;;;;;14.13;2.53;;;;;;;5.91;100.00;101543.09;5075167;28;20035;-81
2023/01/21 07:07:31;;;;;;;16.00;2.33;;;;;;;5.90;100.00;101548.44;5054097;28;20036;-81
2023/01/21 07:09:57;;;;;;;11.85;2.65;;;;;;;5.92;100.00;101555.31;5073244;28;20431;-81
2023/01/21 07:12:24;;;;;;;18.77;2.70;;;;;;;5.91;100.00;101553.59;5054029;28;20541;-81
2023/01/21 07:14:49;;;;;;;15.55;2.92;;;;;;;5.91;100.00;101558.84;5069646;28;20028;-81
2023/01/21 07:17:15;;;;;;;12.23;2.47;;;;;;;5.92;100.00;101550.06;5072039;28;20051;-81
2023/01/21 07:19:41;;;;;;;9.52;2.50;;;;;;;5.96;100.00;101542.84;5067177;28;20053;-80
2023/01/21 07:22:07;;;;;;;7.72;2.40;;;;;;;5.96;100.00;101540.22;5063070;28;20210;-81
2023/01/21 07:24:33;;;;;;;17.45;3.03;;;;;;;5.99;100.00;101539.22;5050616;28;20509;-81
2023/01/21 07:26:59;;;;;;;15.88;2.90;;;;;;;6.01;100.00;101542.56;5057010;28;20125;-81
2023/01/21 07:29:26;;;;;;;10.73;2.80;;;;;;;6.00;100.00;101547.00;5046014;28;20087;-81
2023/01/21 07:31:52;;;;;;;5.53;2.90;;;;;;;6.03;100.00;101548.59;5071118;28;20569;-81
2023/01/21 07:34:18;;;;;;;9.82;2.72;;;;;;;6.02;100.00;101544.28;5053135;28;20063;-81
2023/01/21 07:36:44;;;;;;;15.75;2.90;;;;;;;6.02;100.00;101539.84;5040538;28;20107;-81
2023/01/21 07:39:09;;;;;;;13.60;2.42;;;;;;;6.02;100.00;101547.72;5037755;28;20081;-81
2023/01/21 07:41:35;;;;;;;21.63;3.90;;;;;;;6.04;100.00;101556.41;5053366;28;20036;-81
2023/01/21 07:44:04;;;;;;;11.70;3.08;;;;;;;6.05;100.00;101558.09;5035498;28;20041;-81
2023/01/21 07:46:32;;;;;;;13.35;2.85;;;;;;;6.08;100.00;101557.91;5067644;28;20432;-81
2023/01/21 07:48:57;;;;;;;11.65;2.88;;;;;;;6.05;100.00;101552.84;5038595;28;20040;-81
2023/01/21 07:51:23;;;;;;;9.85;3.08;;;;;;;6.08;100.00;101555.28;5041012;28;20040;-81
2023/01/21 07:53:49;;;;;;;14.63;3.00;;;;;;;6.07;100.00;101558.84;5022361;28;20032;-82
2023/01/21 07:56:16;;;;;;;11.55;4.47;;;;;;;6.10;100.00;101557.81;5052500;28;20032;-82
2023/01/21 07:58:42;;;;;;;10.52;2.78;;;;;;;6.11;100.00;101562.16;5048387;28;20048;-81
2023/01/21 08:01:09;;;;;;;6.10;2.60;;;;;;;6.14;100.00;101556.75;5054637;28;20016;-81
2023/01/21 08:03:36;;;;;;;16.67;3.67;;;;;;;6.12;100.00;101563.84;5062575;28;20040;-81
2023/01/21 08:06:02;;;;;;;19.50;2.55;;;;;;;6.11;100.00;101563.94;5065631;28;20040;-81
2023/01/21 08:08:28;;;;;;;14.57;2.80;;;;;;;6.11;100.00;101567.41;5050788;28;20591;-81
2023/01/21 08:10:55;;;;;;;15.40;3.47;;;;;;;6.11;100.00;101569.19;5042001;28;20105;-79
2023/01/21 08:13:20;;;;;;;12.00;2.60;;;;;;;6.12;100.00;101566.47;5051736;28;20156;-81
2023/01/21 08:15:51;;;;;;;14.52;3.20;;;;;;;6.18;100.00;101573.16;5049140;28;20025;-82
2023/01/21 08:18:17;;;;;;;22.13;3.38;;;;;;;6.16;100.00;101575.03;5036524;28;20035;-81
2023/01/21 08:20:43;;;;;;;9.35;2.42;;;;;;;6.15;100.00;101575.94;5024587;28;20045;-80
2023/01/21 08:23:09;;;;;;;10.98;3.20;;;;;;;6.14;100.00;101584.75;5045465;28;20044;-79
2023/01/21 08:25:35;;;;;;;22.05;2.88;;;;;;;6.14;100.00;101580.38;5032679;28;20033;-81
2023/01/21 08:28:00;;;;;;;14.25;2.63;;;;;;;6.11;100.00;101583.16;5024438;28;20049;-81
2023/01/21 08:30:26;;;;;;;12.13;2.70;;;;;;;6.12;100.00;101579.59;5028705;28;20044;-81
2023/01/21 08:32:52;;;;;;;13.20;2.25;;;;;;;6.15;100.00;101582.03;5044012;28;20481;-81
2023/01/21 08:35:18;;;;;;;14.40;2.67;;;;;;;6.13;100.00;101576.03;5009551;28;20033;-81
2023/01/21 08:37:44;;;;;;;13.80;2.88;;;;;;;6.14;100.00;101582.13;5036869;28;20500;-81
2023/01/21 08:40:10;;;;;;;12.07;2.78;;;;;;;6.13;100.00;101583.06;4967875;28;20025;-81
2023/01/21 08:42:36;;;;;;;14.55;2.80;;;;;;;6.14;100.00;101590.00;5035592;28;20052;-81
2023/01/21 08:45:02;;;;;;;7.72;2.38;;;;;;;6.15;100.00;101578.56;5029820;28;20036;-81
2023/01/21 08:47:28;;;;;;;14.02;2.90;;;;;;;6.14;100.00;101588.25;5043010;28;20041;-81
2023/01/21 08:49:54;;;;;;;12.00;2.50;;;;;;;6.14;100.00;101585.63;5036912;28;20457;-82
2023/01/21 08:52:20;;;;;;;14.43;3.38;;;;;;;6.15;100.00;101592.53;5045501;28;20040;-82
2023/01/21 08:54:46;;;;;;;11.90;2.88;;;;;;;6.15;100.00;101589.91;5038522;28;20083;-82
2023/01/21 08:57:11;;;;;;;14.63;2.90;;;;;;;6.16;100.00;101588.16;5034771;28;20033;-81
2023/01/21 08:59:37;;;;;;;13.27;2.47;;;;;;;6.17;100.00;101593.31;5044301;28;20033;-81
2023/01/21 09:02:03;;;;;;;6.97;2.17;;;;;;;6.19;100.00;101591.47;5018357;28;20041;-82
2023/01/21 09:04:29;;;;;;;17.45;3.85;;;;;;;6.19;100.00;101587.97;5040050;28;20519;-82
2023/01/21 09:06:55;;;;;;;10.05;2.22;;;;;;;6.17;100.00;101595.94;5024353;28;20061;-82
2023/01/21 09:09:21;;;;;;;18.08;2.50;;;;;;;6.18;100.00;101592.38;5033200;28;20037;-82
2023/01/21 09:11:47;;;;;;;16.98;3.55;;;;;;;6.20;100.00;101589.66;5030777;28;20108;-82
2023/01/21 09:14:12;;;;;;;13.50;2.50;;;;;;;6.20;100.00;101580.00;4992957;28;20041;-82
2023/01/21 09:16:38;;;;;;;19.70;2.50;;;;;;;6.23;100.00;101581.59;5038787;28;20090;-82
2023/01/21 09:19:04;;;;;;;14.55;2.45;;;;;;;6.22;100.00;101585.19;4960187;28;20029;-82
2023/01/21 09:21:33;;;;;;;11.38;2.78;;;;;;;6.25;100.00;101592.88;5046095;28;20049;-81
2023/01/21 09:23:59;;;;;;;8.30;2.70;;;;;;;6.26;100.00;101586.69;5023966;28;20074;-82
2023/01/21 09:26:25;;;;;;;14.32;2.75;;;;;;;6.26;100.00;101591.94;5039095;28;20036;-82
2023/01/21 09:28:57;;;;;;;19.00;3.20;;;;;;;6.29;100.00;101588.31;5013319;28;20040;-82
2023/01/21 09:31:24;;;;;;;18.77;3.05;;;;;;;6.29;100.00;101597.00;5018971;28;20476;-82
2023/01/21 09:33:56;;;;;;;19.90;3.60;;;;;;;6.34;100.00;101588.88;5050932;28;20124;-81
2023/01/21 09:36:24;;;;;;;9.68;2.95;;;;;;;6.35;100.00;101601.09;5023618;28;20043;-81
2023/01/21 09:38:50;;;;;;;19.38;3.97;;;;;;;6.32;100.00;101596.84;5039521;28;20373;-82
2023/01/21 09:41:39;;;;;;;12.05;3.13;;;;;;;6.35;100.00;101587.94;5037789;28;20120;-81
2023/01/21 09:44:30;;;;;;;15.52;3.00;;;;;;;6.38;100.00;101594.78;5021413;28;20429;-81
2023/01/21 09:47:05;;;;;;;17.58;2.92;;;;;;;6.36;100.00;101602.75;5050472;28;20880;-81
2023/01/21 09:49:47;;;;;;;10.77;2.80;;;;;;;6.40;100.00;101592.94;5041351;28;20124;-82
2023/01/21 09:52:34;;;;;;;13.18;2.90;;;;;;;6.41;100.00;101592.84;5042760;28;20034;-81
2023/01/21 09:55:01;;;;;;;8.27;2.60;;;;;;;6.38;100.00;101593.03;5044688;28;20025;-81
2023/01/21 09:57:53;;;;;;;9.38;2.60;;;;;;;6.40;100.00;101598.19;5028103;28;20084;-81
2023/01/21 10:00:44;;;;;;;15.95;3.15;;;;;;;6.41;100.00;101602.50;5045677;28;20028;-81
2023/01/21 10:03:26;;;;;;;11.40;2.40;;;;;;;6.45;100.00;101596.13;5025425;28;20120;-81
2023/01/21 10:05:57;;;;;;;10.90;2.50;;;;;;;6.41;100.00;101610.38;5032920;28;20405;-81
2023/01/21 10:09:05;;;;;;;18.75;3.03;;;;;;;6.42;100.00;101606.81;5016101;28;20408;-81
2023/01/21 10:11:36;;;;;;;20.00;5.28;;;;;;;6.42;100.00;101617.31;5010471;28;20072;-81
2023/01/21 10:14:26;;;;;;;8.88;1.83;;;;;;;6.43;100.00;101614.59;4984445;28;20041;-81
2023/01/21 10:17:05;;;;;;;10.48;2.03;;;;;;;6.43;100.00;101614.59;5025294;28;20074;-81
2023/01/21 10:20:04;;;;;;;9.32;1.92;;;;;;;6.40;100.00;101606.91;5039203;28;20499;-81
2023/01/21 10:22:30;;;;;;;12.55;2.28;;;;;;;6.41;100.00;101608.59;5057614;28;20053;-81
2023/01/21 10:25:14;;;;;;;17.98;2.58;;;;;;;6.46;100.00;101608.34;5054180;28;20028;-81
2023/01/21 10:27:42;;;;;;;10.32;2.55;;;;;;;6.43;100.00;101606.72;5051294;28;20030;-81
2023/01/21 10:30:23;;;;;;;13.52;2.10;;;;;;;6.50;100.00;101616.91;5050314;28;20039;-81
2023/01/21 10:32:53;;;;;;;16.45;2.10;;;;;;;6.45;100.00;101619.75;5045203;28;20039;-81
2023/01/21 10:35:30;;;;;;;11.40;2.10;;;;;;;6.47;100.00;101619.69;5048508;28;20051;-81
2023/01/21 10:38:09;;;;;;;5.85;1.73;;;;;;;6.49;100.00;101616.03;5046540;28;20031;-81
2023/01/21 10:40:46;;;;;;;11.73;1.70;;;;;;;6.49;100.00;101617.81;5032985;28;20049;-81
2023/01/21 10:43:32;;;;;;;12.18;2.45;;;;;;;6.48;100.00;101621.38;5065922;28;20029;-81
2023/01/21 10:46:05;;;;;;;10.90;2.20;;;;;;;6.50;100.00;101620.34;5043693;28;20028;-81
2023/01/21 10:48:39;;;;;;;8.02;1.70;;;;;;;6.51;100.00;101618.56;5063713;28;20492;-81
2023/01/21 10:51:20;;;;;;;11.80;2.00;;;;;;;6.52;100.00;101628.13;5047019;28;20059;-82
2023/01/21 10:53:59;;;;;;;14.32;2.45;;;;;;;6.49;100.00;101623.91;5046599;28;20032;-82
2023/01/21 10:56:47;;;;;;;10.18;2.05;;;;;;;6.51;100.00;101621.22;5053370;28;20436;-82
2023/01/21 10:59:25;;;;;;;11.55;1.80;;;;;;;6.50;100.00;101622.16;5027802;28;20036;-81
2023/01/21 11:02:18;;;;;;;6.93;1.55;;;;;;;6.54;100.00;101621.03;5047068;28;20114;-81
2023/01/21 11:04:44;;;;;;;10.13;1.73;;;;;;;6.50;100.00;101616.91;5055404;28;20045;-81
2023/01/21 11:07:16;;;;;;;9.30;2.05;;;;;;;6.51;100.00;101626.47;5049039;28;20063;-81
2023/01/21 11:09:45;;;;;;;4.90;1.90;;;;;;;6.50;100.00;101625.59;5059936;28;20029;-81
2023/01/21 11:12:19;;;;;;;4.47;1.80;;;;;;;6.49;100.00;101616.03;5058941;28;20029;-81
2023/01/21 11:14:56;;;;;;;5.20;1.55;;;;;;;6.52;100.00;101628.13;5062886;28;20373;-81
2023/01/21 11:17:33;;;;;;;6.57;1.77;;;;;;;6.52;100.00;101626.38;5032564;28;20102;-82
2023/01/21 11:20:02;;;;;;;11.00;2.30;;;;;;;6.50;100.00;101624.78;5040919;28;20385;-81
2023/01/21 11:22:31;;;;;;;12.00;1.85;;;;;;;6.50;100.00;101622.97;5057190;28;20045;-81
2023/01/21 11:24:57;;;;;;;6.28;1.52;;;;;;;6.50;100.00;101617.72;5024589;28;20402;-81
2023/01/21 11:27:33;;;;;;;6.45;1.92;;;;;;;6.50;100.00;101624.78;5047968;28;20093;-80
2023/01/21 11:30:00;;;;;;;9.90;2.05;;;;;;;6.53;100.00;101617.53;5061470;28;20603;-81
2023/01/21 11:32:30;;;;;;;11.02;2.42;;;;;;;6.52;100.00;101626.38;5068402;28;20039;-81
2023/01/21 11:35:20;;;;;;;6.50;1.98;;;;;;;6.51;100.00;101619.44;5069061;28;20701;-82